Eielson Air Force Base Airport (EIL)

 

Airport Diagram
Current Weather/Forecast (MVFR Conditions)
METAR PAEI 100456Z 30003KT 7SM TSRA FEW006 BKN020 OVC080 14/13 A2975 RMK AO2A OCNL LTG S TS 4S MOV SSW TSB47 CIG 020V080 SLP078 P0006 T01350125 $
TAF

All Charts

Inbound Traffic (Arrivals)

No inbound traffic.


Outbound Traffic (Departures)

No outbound traffic.